Time;durP1;ratioP1;P1;durP2;ratioP2;P2;SDS_P1;SDS_P2;PMS_P1;PMS_P2;Temp;Humidity;BMP_temperature;BMP_pressure;BME280_temperature;BME280_humidity;BME280_pressure;Samples;Min_cycle;Max_cycle;Signal;HPM_P1;HPM_P2
2022/02/12 00:09:11;;;;;;;19.90;7.90;;;;;;;-1.18;100.00;102212.25;20887197;28;20045;-70
2022/02/12 00:19:13;;;;;;;21.92;8.65;;;;;;;-1.19;100.00;102210.47;20891019;28;20079;-68
2022/02/12 00:29:14;;;;;;;24.90;10.27;;;;;;;-1.31;100.00;102201.22;20886831;28;20399;-70
2022/02/12 00:39:16;;;;;;;23.67;10.38;;;;;;;-1.35;100.00;102194.09;20886016;28;20560;-68
2022/02/12 00:49:17;;;;;;;24.65;12.20;;;;;;;-1.52;100.00;102210.19;20891398;28;20099;-75
2022/02/12 00:59:21;;;;;;;28.40;11.93;;;;;;;-1.49;100.00;102196.63;20901543;28;20045;-72
2022/02/12 01:09:22;;;;;;;22.70;11.07;;;;;;;-1.55;100.00;102180.03;20899629;28;20486;-72
2022/02/12 01:19:24;;;;;;;26.70;11.65;;;;;;;-1.48;100.00;102175.31;20898699;28;20102;-71
2022/02/12 01:29:25;;;;;;;22.88;10.32;;;;;;;-1.46;100.00;102164.31;20899012;28;20049;-68
2022/02/12 01:39:27;;;;;;;28.13;9.25;;;;;;;-1.53;100.00;102172.47;20897592;28;20044;-70
2022/02/12 01:49:29;;;;;;;20.98;8.13;;;;;;;-1.49;100.00;102147.81;20899656;28;20515;-73
2022/02/12 01:59:31;;;;;;;24.83;8.88;;;;;;;-1.41;100.00;102149.19;20893902;28;20056;-69
2022/02/12 02:09:33;;;;;;;31.10;11.05;;;;;;;-1.34;100.00;102144.53;20892315;28;20045;-70
2022/02/12 02:19:35;;;;;;;26.88;11.50;;;;;;;-1.36;100.00;102132.34;20893731;28;20057;-68
2022/02/12 02:29:38;;;;;;;28.75;13.38;;;;;;;-1.47;100.00;102126.59;20893044;28;20053;-69
2022/02/12 02:39:41;;;;;;;26.63;11.97;;;;;;;-1.62;100.00;102120.53;20891751;28;20049;-70
2022/02/12 02:49:42;;;;;;;26.98;10.95;;;;;;;-1.82;100.00;102116.69;20891652;28;20045;-70
2022/02/12 02:59:43;;;;;;;30.05;12.15;;;;;;;-1.81;100.00;102110.78;20890930;28;20099;-68
2022/02/12 03:09:45;;;;;;;36.30;14.35;;;;;;;-1.97;100.00;102106.38;20890156;28;20556;-69
2022/02/12 03:19:46;;;;;;;35.65;15.68;;;;;;;-1.91;100.00;102096.50;20889791;28;20111;-70
2022/02/12 03:29:48;;;;;;;33.83;13.98;;;;;;;-1.95;100.00;102091.97;20890140;28;20560;-68
2022/02/12 03:39:49;;;;;;;29.50;13.32;;;;;;;-1.92;100.00;102092.13;20888018;28;20417;-68
2022/02/12 03:49:51;;;;;;;34.13;15.40;;;;;;;-1.87;100.00;102074.47;20887657;28;20044;-70
2022/02/12 03:59:52;;;;;;;39.13;16.15;;;;;;;-2.02;100.00;102070.94;20888224;28;20041;-69
2022/02/12 04:09:54;;;;;;;34.33;16.88;;;;;;;-1.98;100.00;102063.53;20887117;28;20045;-69
2022/02/12 04:19:55;;;;;;;33.72;16.58;;;;;;;-2.05;100.00;102046.00;20887462;28;20544;-70
2022/02/12 04:29:58;;;;;;;36.45;15.68;;;;;;;-2.11;100.00;102050.72;20903543;28;20090;-70
2022/02/12 04:40:02;;;;;;;42.70;16.70;;;;;;;-2.17;100.00;102046.13;20901966;28;20071;-71
2022/02/12 04:50:05;;;;;;;41.33;17.90;;;;;;;-2.15;100.00;102038.53;20901788;28;20084;-68
2022/02/12 05:00:07;;;;;;;44.08;19.52;;;;;;;-2.23;100.00;102029.47;20900342;28;20635;-68
2022/02/12 05:10:09;;;;;;;44.38;20.00;;;;;;;-2.27;100.00;102022.38;20900473;28;20041;-70
2022/02/12 05:20:11;;;;;;;33.30;15.95;;;;;;;-2.38;100.00;102014.00;20890574;28;20049;-68
2022/02/12 05:30:13;;;;;;;38.35;17.23;;;;;;;-2.38;100.00;101988.38;20897377;28;20045;-70
2022/02/12 05:40:16;;;;;;;38.72;18.05;;;;;;;-2.38;100.00;101988.38;20896147;28;20045;-70
2022/02/12 05:50:18;;;;;;;43.15;19.77;;;;;;;-2.59;100.00;101982.75;20896573;28;20518;-70
2022/02/12 06:00:20;;;;;;;40.30;18.13;;;;;;;-2.61;100.00;101972.41;20895733;28;20680;-68
2022/02/12 06:10:25;;;;;;;46.45;20.75;;;;;;;-2.52;100.00;101974.69;20891196;28;20049;-69
2022/02/12 06:20:27;;;;;;;40.53;18.58;;;;;;;-2.55;100.00;101989.88;20892959;28;20048;-70
2022/02/12 06:30:29;;;;;;;44.25;18.13;;;;;;;-2.49;100.00;101968.84;20890163;28;20522;-69
2022/02/12 06:40:32;;;;;;;40.92;19.17;;;;;;;-2.60;100.00;101965.63;20890006;28;20041;-70
2022/02/12 06:50:34;;;;;;;48.15;22.15;;;;;;;-2.47;100.00;101963.03;20888671;28;20049;-69
2022/02/12 07:00:37;;;;;;;50.47;21.03;;;;;;;-2.46;100.00;101959.66;20889692;28;20587;-68
2022/02/12 07:10:40;;;;;;;62.22;26.38;;;;;;;-2.42;100.00;101953.94;20891026;28;20045;-70
2022/02/12 07:20:41;;;;;;;51.85;23.27;;;;;;;-2.32;100.00;101965.66;20889728;28;20460;-74
2022/02/12 07:30:43;;;;;;;41.85;20.00;;;;;;;-2.32;100.00;101966.53;20887699;28;20048;-74
2022/02/12 07:40:44;;;;;;;46.13;21.17;;;;;;;-2.12;100.00;101961.72;20887123;28;20102;-71
2022/02/12 07:50:46;;;;;;;64.30;24.77;;;;;;;-1.92;100.00;101948.41;20886370;28;20548;-71
2022/02/12 08:00:47;;;;;;;50.33;23.92;;;;;;;-1.71;100.00;101935.06;20894828;28;20041;-72
2022/02/12 08:21:09;;;;;;;57.17;26.23;;;;;;;-1.53;100.00;101941.28;20893492;28;20048;-71
2022/02/12 08:31:11;;;;;;;59.60;27.25;;;;;;;-1.39;100.00;101955.81;20876555;28;20053;-70
2022/02/12 08:41:13;;;;;;;51.58;23.48;;;;;;;-1.27;100.00;101944.44;20871572;28;20694;-70
2022/02/12 08:51:14;;;;;;;55.53;24.52;;;;;;;-1.10;100.00;101946.31;20874801;28;20072;-70
2022/02/12 09:01:16;;;;;;;59.55;24.92;;;;;;;-1.06;100.00;101940.50;20873305;28;20057;-70
2022/02/12 09:11:19;;;;;;;47.08;22.20;;;;;;;-1.00;100.00;101938.31;20867849;28;20459;-70
2022/02/12 09:21:21;;;;;;;40.67;18.27;;;;;;;-0.62;100.00;101914.69;20890479;28;20477;-69
2022/02/12 09:31:23;;;;;;;40.95;17.48;;;;;;;-0.08;100.00;101909.78;20894504;28;20123;-68
2022/02/12 09:41:27;;;;;;;32.28;16.10;;;;;;;0.39;100.00;101903.56;20893883;28;20456;-68
2022/02/12 09:51:30;;;;;;;;;;;;;;;0.81;99.12;101903.88;20893458;28;20052;-68
2022/02/12 10:01:32;;;;;;;28.05;13.25;;;;;;;1.11;97.85;101889.88;20892931;28;20297;-67
2022/02/12 10:11:54;;;;;;;26.05;12.75;;;;;;;1.54;95.27;101892.69;20891937;28;20076;-67
2022/02/12 10:22:12;;;;;;;29.13;13.10;;;;;;;1.89;96.68;101869.25;20886434;28;20118;-66
2022/02/12 10:32:17;;;;;;;23.73;11.40;;;;;;;2.19;91.66;101855.03;20882065;28;20040;-66
2022/02/12 10:42:19;;;;;;;24.40;11.67;;;;;;;2.24;92.41;101831.97;20865081;28;20037;-67
2022/02/12 10:52:22;;;;;;;28.15;12.02;;;;;;;2.51;91.81;101816.69;20853006;28;20054;-67
2022/02/12 11:02:25;;;;;;;21.85;11.35;;;;;;;2.81;89.90;101792.00;20862043;28;20056;-67
2022/02/12 11:12:29;;;;;;;18.90;10.02;;;;;;;3.16;87.32;101774.31;20876812;28;20113;-67
2022/02/12 11:22:32;;;;;;;21.17;9.63;;;;;;;3.50;83.27;101754.84;20886546;28;20140;-68
2022/02/12 11:32:41;;;;;;;21.63;9.35;;;;;;;3.66;80.76;101736.41;20885343;28;20044;-71
2022/02/12 11:42:54;;;;;;;21.17;9.13;;;;;;;4.02;80.74;101704.75;20881980;28;20076;-71
2022/02/12 11:52:55;;;;;;;19.15;8.63;;;;;;;4.09;78.36;101670.44;20882697;28;20044;-69
2022/02/12 12:03:04;;;;;;;18.88;8.32;;;;;;;4.48;75.61;101659.50;20878805;28;20044;-69
2022/02/12 12:13:12;;;;;;;18.50;8.80;;;;;;;4.58;75.67;101635.59;20882403;28;20060;-69
2022/02/12 12:23:15;;;;;;;18.13;8.27;;;;;;;4.79;72.55;101614.53;20879007;28;20053;-70
2022/02/12 12:33:17;;;;;;;15.65;7.40;;;;;;;5.08;71.08;101608.44;20876996;28;20686;-70
2022/02/12 12:43:19;;;;;;;21.55;8.43;;;;;;;5.21;70.88;101580.16;20886875;28;20065;-69
2022/02/12 12:53:22;;;;;;;14.75;6.35;;;;;;;5.46;67.30;101574.75;20899146;28;20055;-68
2022/02/12 13:03:23;;;;;;;20.45;6.85;;;;;;;5.75;64.33;101552.03;20894538;28;20049;-73
2022/02/12 13:13:27;;;;;;;19.83;6.75;;;;;;;5.91;64.42;101538.56;20885600;28;20151;-68
2022/02/12 13:23:29;;;;;;;16.17;6.73;;;;;;;6.30;61.15;101522.03;20896911;28;20099;-69
2022/02/12 13:33:32;;;;;;;12.77;6.05;;;;;;;6.40;60.17;101503.13;20894767;28;20103;-68
2022/02/12 13:43:44;;;;;;;14.85;6.03;;;;;;;6.40;60.69;101492.72;20893081;28;20543;-67
2022/02/12 13:53:49;;;;;;;16.23;6.65;;;;;;;6.66;59.52;101468.94;20892849;28;20546;-69
2022/02/12 14:03:55;;;;;;;14.57;6.97;;;;;;;6.70;60.43;101452.50;20889671;28;20045;-68
2022/02/12 14:13:57;;;;;;;14.63;6.30;;;;;;;6.69;59.29;101435.13;20892142;28;20075;-68
2022/02/12 14:23:59;;;;;;;13.27;5.78;;;;;;;6.71;60.13;101429.94;20891538;28;20046;-67
2022/02/12 14:34:00;;;;;;;20.90;6.80;;;;;;;6.70;60.00;101418.66;20884135;28;20083;-68
2022/02/12 14:44:02;;;;;;;13.65;4.80;;;;;;;6.42;60.39;101401.75;20889417;28;20049;-69
2022/02/12 14:54:04;;;;;;;9.57;4.80;;;;;;;6.49;59.66;101392.31;20888620;28;20047;-67
2022/02/12 15:04:06;;;;;;;11.80;5.18;;;;;;;6.24;59.93;101384.06;20885571;28;21446;-66
2022/02/12 15:14:08;;;;;;;9.45;4.68;;;;;;;6.15;58.96;101370.91;20886671;28;20106;-66
2022/02/12 15:24:09;;;;;;;14.57;6.90;;;;;;;6.21;58.18;101367.53;20885937;28;20041;-66
2022/02/12 15:34:11;;;;;;;10.85;5.30;;;;;;;6.09;58.13;101352.59;20884820;28;20068;-66
2022/02/12 15:44:13;;;;;;;14.93;6.88;;;;;;;6.00;58.80;101344.63;20885582;28;20044;-66
2022/02/12 15:54:15;;;;;;;11.93;6.57;;;;;;;5.95;60.30;101343.69;20884067;28;20049;-66
2022/02/12 16:04:16;;;;;;;12.30;5.68;;;;;;;5.64;61.43;101335.25;20883825;28;20552;-66
2022/02/12 16:14:17;;;;;;;12.98;5.43;;;;;;;5.37;62.89;101336.47;20883768;28;20075;-66
2022/02/12 16:24:19;;;;;;;15.45;6.05;;;;;;;5.20;64.38;101330.06;20897505;28;20391;-66
2022/02/12 16:34:20;;;;;;;10.05;4.63;;;;;;;4.75;70.41;101330.81;20895980;28;20048;-69
2022/02/12 16:44:23;;;;;;;9.07;3.88;;;;;;;4.22;76.87;101333.00;20898608;28;20111;-72
2022/02/12 16:54:24;;;;;;;10.35;4.80;;;;;;;3.70;77.48;101329.03;20897674;28;20131;-70
2022/02/12 17:04:26;;;;;;;14.70;5.90;;;;;;;3.29;80.88;101336.50;20896176;28;20087;-70
2022/02/12 17:14:27;;;;;;;10.30;4.38;;;;;;;3.00;82.75;101338.25;20897325;28;20057;-72
2022/02/12 17:24:30;;;;;;;12.02;4.45;;;;;;;2.62;86.49;101331.91;20892462;28;20559;-70
2022/02/12 17:34:33;;;;;;;15.00;5.72;;;;;;;2.40;87.70;101324.31;20874985;28;20432;-73
2022/02/12 17:44:35;;;;;;;19.27;7.55;;;;;;;2.17;88.32;101308.06;20890872;28;20044;-70
2022/02/12 17:54:36;;;;;;;28.83;10.13;;;;;;;1.96;88.99;101313.38;20893150;28;20060;-70
2022/02/12 18:04:41;;;;;;;14.45;6.35;;;;;;;1.71;90.57;101307.38;20892005;28;20037;-70
2022/02/12 18:14:44;;;;;;;16.02;5.47;;;;;;;1.48;92.00;101303.09;20890143;28;20048;-70
2022/02/12 18:24:46;;;;;;;11.80;5.35;;;;;;;1.33;94.07;101292.25;20890378;28;20098;-71
2022/02/12 18:34:47;;;;;;;16.65;7.07;;;;;;;1.11;94.89;101276.00;20886215;28;20394;-70
2022/02/12 18:44:50;;;;;;;15.95;8.65;;;;;;;0.93;96.06;101278.78;20883819;28;20090;-71
2022/02/12 18:54:51;;;;;;;16.95;6.93;;;;;;;0.83;96.78;101273.22;20881687;28;20049;-71
2022/02/12 19:04:54;;;;;;;19.05;7.88;;;;;;;0.62;96.91;101265.53;20886571;28;20136;-75
2022/02/12 19:14:56;;;;;;;17.92;8.43;;;;;;;0.49;96.45;101266.78;20879304;28;20048;-71
2022/02/12 19:24:57;;;;;;;21.92;10.38;;;;;;;0.35;98.03;101263.66;20881604;28;20052;-71
2022/02/12 19:34:59;;;;;;;42.42;21.40;;;;;;;0.30;98.68;101259.16;20873997;28;20051;-72
2022/02/12 19:45:01;;;;;;;25.73;13.00;;;;;;;0.12;98.38;101255.00;20874014;28;20041;-70
2022/02/12 19:55:04;;;;;;;33.28;15.57;;;;;;;-0.02;98.46;101258.72;20870282;28;20053;-71
2022/02/12 20:05:07;;;;;;;39.22;18.77;;;;;;;-0.09;99.93;101264.44;20877719;28;20045;-72
2022/02/12 20:15:10;;;;;;;30.10;17.77;;;;;;;-0.27;99.57;101265.44;20882584;28;20049;-71
2022/02/12 20:25:12;;;;;;;47.08;24.67;;;;;;;-0.38;99.84;101253.81;20882066;28;20045;-71
2022/02/12 20:35:14;;;;;;;55.13;26.90;;;;;;;-0.46;100.00;101246.59;20879825;28;20056;-74
2022/02/12 20:45:15;;;;;;;48.67;23.55;;;;;;;-0.50;100.00;101249.84;20943397;22;20041;-70
2022/02/12 20:55:18;;;;;;;35.70;17.92;;;;;;;-0.56;100.00;101256.50;20920131;28;20049;-70
2022/02/12 21:05:19;;;;;;;36.85;19.05;;;;;;;-0.69;100.00;101245.59;20924312;28;20075;-68
2022/02/12 21:15:21;;;;;;;34.78;18.25;;;;;;;-0.70;100.00;101237.00;20942850;28;20387;-69
2022/02/12 21:25:42;;;;;;;31.75;14.98;;;;;;;-0.59;100.00;101240.91;20936145;28;20164;-69
2022/02/12 21:35:51;;;;;;;32.95;15.68;;;;;;;-0.73;100.00;101225.72;20935153;28;20476;-70
2022/02/12 21:45:54;;;;;;;31.85;15.82;;;;;;;-0.97;100.00;101217.81;20943605;28;20472;-70
2022/02/12 21:55:58;;;;;;;39.15;15.88;;;;;;;-1.18;100.00;101221.19;20910543;28;20045;-71
2022/02/12 22:05:59;;;;;;;;;;;;;;;-1.20;100.00;101211.66;20936804;28;20045;-70
2022/02/12 22:16:01;;;;;;;59.40;24.73;;;;;;;-1.27;100.00;101209.63;20932256;28;19931;-69
2022/02/12 22:26:05;;;;;;;40.83;19.75;;;;;;;-1.36;100.00;101198.13;20927936;28;20566;-69
2022/02/12 22:36:06;;;;;;;45.28;20.10;;;;;;;-1.40;100.00;101197.91;20933416;28;20738;-70
2022/02/12 22:46:08;;;;;;;47.00;24.02;;;;;;;-1.49;100.00;101182.09;20925691;28;20119;-70
2022/02/12 22:56:14;;;;;;;39.42;20.15;;;;;;;-1.61;100.00;101185.00;20925866;28;20102;-70
2022/02/12 23:06:17;;;;;;;42.03;18.50;;;;;;;-1.70;100.00;101182.00;20929102;28;20525;-70
2022/02/12 23:16:21;;;;;;;32.15;16.27;;;;;;;-1.76;100.00;101172.31;20920368;28;20045;-70
2022/02/12 23:26:23;;;;;;;38.97;17.65;;;;;;;-1.83;100.00;101173.72;20929197;28;20048;-70
2022/02/12 23:36:26;;;;;;;35.42;18.55;;;;;;;-1.83;100.00;101170.28;20924444;28;20098;-70
2022/02/12 23:46:27;;;;;;;40.85;18.13;;;;;;;-1.83;100.00;101160.88;20892647;28;1027702;-70
2022/02/12 23:56:29;;;;;;;43.15;20.30;;;;;;;-1.80;100.00;101155.03;20934209;28;20135;-70
